createdAt,value
2022-09-14T00:01:24.858Z,97234.66
2022-09-14T00:04:34.607Z,97232.47
2022-09-14T00:07:40.565Z,97228.25
2022-09-14T00:10:50.880Z,97230.50
2022-09-14T00:13:59.200Z,97229.09
2022-09-14T00:17:06.408Z,97229.47
2022-09-14T00:20:15.198Z,97221.53
2022-09-14T00:23:20.944Z,97213.16
2022-09-14T00:26:27.423Z,97207.59
2022-09-14T00:29:34.260Z,97209.25
2022-09-14T00:32:40.595Z,97213.97
2022-09-14T00:35:48.985Z,97210.69
2022-09-14T00:38:56.893Z,97216.41
2022-09-14T00:42:02.947Z,97212.44
2022-09-14T00:45:19.386Z,97208.91
2022-09-14T00:48:37.447Z,97206.06
2022-09-14T00:51:56.177Z,97206.47
2022-09-14T00:55:07.724Z,97209.16
2022-09-14T00:58:13.687Z,97212.97
2022-09-14T01:01:20.021Z,97199.63
2022-09-14T01:04:26.616Z,97204.59
2022-09-14T01:07:59.988Z,97191.91
2022-09-14T01:11:26.998Z,97194.66
2022-09-14T01:14:46.314Z,97191.47
2022-09-14T01:18:08.236Z,97197.19
2022-09-14T01:21:22.916Z,97181.94
2022-09-14T01:24:49.464Z,97192.13
2022-09-14T01:28:06.684Z,97186.91
2022-09-14T01:31:21.686Z,97183.19
2022-09-14T01:34:38.005Z,97175.63
2022-09-14T01:37:52.966Z,97174.63
2022-09-14T01:41:06.668Z,97170.72
2022-09-14T01:44:23.475Z,97172.25
2022-09-14T01:47:38.914Z,97164.09
2022-09-14T01:50:55.876Z,97168.53
2022-09-14T01:54:14.593Z,97166.31
2022-09-14T01:57:32.189Z,97168.19
2022-09-14T02:00:48.387Z,97164.38
2022-09-14T02:04:05.574Z,97164.00
2022-09-14T02:07:12.813Z,97168.25
2022-09-14T02:10:21.392Z,97160.19
2022-09-14T02:13:28.510Z,97164.66
2022-09-14T02:16:36.911Z,97162.72
2022-09-14T02:19:53.945Z,97159.94
2022-09-14T02:23:00.101Z,97145.59
2022-09-14T02:26:08.228Z,97149.66
2022-09-14T02:29:13.985Z,97144.56
2022-09-14T02:32:37.050Z,97145.09
2022-09-14T02:35:53.226Z,97138.41
2022-09-14T02:39:14.959Z,97132.06
2022-09-14T02:42:37.376Z,97128.69
2022-09-14T02:45:58.152Z,97127.16
2022-09-14T02:49:19.101Z,97126.69
2022-09-14T02:52:38.967Z,97113.28
2022-09-14T02:55:54.574Z,97114.25
2022-09-14T02:59:00.124Z,97109.88
2022-09-14T03:02:07.505Z,97118.50
2022-09-14T03:05:15.902Z,97120.22
2022-09-14T03:08:21.599Z,97124.66
2022-09-14T03:11:27.071Z,97123.97
2022-09-14T03:14:32.677Z,97125.28
2022-09-14T03:17:38.204Z,97120.81
2022-09-14T03:20:48.320Z,97109.06
2022-09-14T03:23:58.103Z,97112.72
2022-09-14T03:27:03.710Z,97110.13
2022-09-14T03:30:11.735Z,97112.38
2022-09-14T03:33:20.031Z,97115.72
2022-09-14T03:36:31.479Z,97111.94
2022-09-14T03:39:37.860Z,97123.97
2022-09-14T03:42:45.889Z,97126.88
2022-09-14T03:45:51.412Z,97120.00
2022-09-14T03:48:58.385Z,97118.94
2022-09-14T03:52:07.165Z,97120.06
2022-09-14T03:55:14.569Z,97132.09
2022-09-14T03:58:20.056Z,97121.72
2022-09-14T04:01:26.765Z,97119.94
2022-09-14T04:04:32.725Z,97111.53
2022-09-14T04:07:40.855Z,97114.94
2022-09-14T04:10:48.968Z,97112.00
2022-09-14T04:13:56.190Z,97111.31
2022-09-14T04:17:02.346Z,97106.53
2022-09-14T04:20:09.373Z,97112.97
2022-09-14T04:23:18.674Z,97121.81
2022-09-14T04:26:28.955Z,97117.03
2022-09-14T04:29:34.507Z,97113.28
2022-09-14T04:32:40.316Z,97102.22
2022-09-14T04:35:45.934Z,97110.06
2022-09-14T04:38:57.945Z,97109.59
2022-09-14T04:42:03.612Z,97106.69
2022-09-14T04:45:10.826Z,97103.84
2022-09-14T04:48:16.352Z,97110.84
2022-09-14T04:51:26.261Z,97103.25
2022-09-14T04:54:34.503Z,97107.09
2022-09-14T04:57:40.033Z,97106.31
2022-09-14T05:00:48.286Z,97108.06
2022-09-14T05:03:55.001Z,97109.22
2022-09-14T05:07:00.549Z,97111.41
2022-09-14T05:10:18.671Z,97113.66
2022-09-14T05:13:24.303Z,97111.28
2022-09-14T05:16:32.878Z,97114.53
2022-09-14T05:19:38.739Z,97119.09
2022-09-14T05:22:44.565Z,97123.66
2022-09-14T05:25:58.800Z,97118.09
2022-09-14T05:29:09.393Z,97124.69
2022-09-14T05:32:15.419Z,97112.13
2022-09-14T05:35:21.278Z,97117.69
2022-09-14T05:38:27.050Z,97112.03
2022-09-14T05:41:35.414Z,97112.97
2022-09-14T05:44:41.986Z,97121.94
2022-09-14T05:47:47.686Z,97127.53
2022-09-14T05:51:02.350Z,97124.56
2022-09-14T05:54:18.656Z,97117.84
2022-09-14T05:57:33.791Z,97120.84
2022-09-14T06:00:39.749Z,97113.88
2022-09-14T06:03:49.098Z,97116.44
2022-09-14T06:07:17.446Z,97111.63
2022-09-14T06:10:23.042Z,97122.91
2022-09-14T06:13:31.790Z,97124.81
2022-09-14T06:16:38.289Z,97124.09
2022-09-14T06:19:44.065Z,97135.66
2022-09-14T06:22:49.720Z,97133.44
2022-09-14T06:25:57.194Z,97136.97
2022-09-14T06:29:05.577Z,97138.59
2022-09-14T06:32:11.137Z,97136.50
2022-09-14T06:35:16.819Z,97136.75
2022-09-14T06:38:22.305Z,97144.31
2022-09-14T06:41:33.003Z,97136.78
2022-09-14T06:44:41.093Z,97134.03
2022-09-14T06:47:46.662Z,97130.53
2022-09-14T06:50:52.191Z,97136.19
2022-09-14T06:54:05.237Z,97142.72
2022-09-14T06:57:10.824Z,97135.91
2022-09-14T07:00:19.817Z,97132.78
2022-09-14T07:03:30.852Z,97132.09
2022-09-14T07:06:42.875Z,97129.91
2022-09-14T07:09:48.404Z,97126.06
2022-09-14T07:12:54.463Z,97127.31
2022-09-14T07:16:03.588Z,97125.06
2022-09-14T07:19:14.179Z,97125.13
2022-09-14T07:22:19.959Z,97130.78
2022-09-14T07:25:25.679Z,97135.91
2022-09-14T07:28:32.997Z,97132.34
2022-09-14T07:31:46.360Z,97131.25
2022-09-14T07:34:58.110Z,97135.03
2022-09-14T07:38:03.708Z,97131.72
2022-09-14T07:41:10.036Z,97138.78
2022-09-14T07:44:19.927Z,97132.22
2022-09-14T07:47:31.401Z,97128.97
2022-09-14T07:50:43.570Z,97129.41
2022-09-14T07:53:49.437Z,97134.59
2022-09-14T07:56:55.190Z,97127.53
2022-09-14T08:00:01.297Z,97125.66
2022-09-14T08:03:09.508Z,97124.56
2022-09-14T08:06:18.807Z,97125.13
2022-09-14T08:09:30.703Z,97136.47
2022-09-14T08:12:36.197Z,97131.34
2022-09-14T08:15:46.323Z,97137.84
2022-09-14T08:18:58.414Z,97134.31
2022-09-14T08:22:04.451Z,97133.50
2022-09-14T08:25:11.850Z,97119.81
2022-09-14T08:28:17.439Z,97135.00
2022-09-14T08:31:25.817Z,97134.28
2022-09-14T08:34:34.494Z,97142.78
2022-09-14T08:37:40.020Z,97139.19
2022-09-14T08:40:51.733Z,97139.84
2022-09-14T08:43:58.295Z,97139.38
2022-09-14T08:47:09.180Z,97135.66
2022-09-14T08:50:22.309Z,97143.91
2022-09-14T08:53:29.872Z,97136.50
2022-09-14T08:56:43.609Z,97136.00
2022-09-14T09:00:05.629Z,97145.53
2022-09-14T09:03:51.488Z,97138.72
2022-09-14T09:07:14.257Z,97139.31
2022-09-14T09:10:22.005Z,97128.69
2022-09-14T09:13:36.655Z,97137.00
2022-09-14T09:16:43.004Z,97129.13
2022-09-14T09:20:06.092Z,97135.38
2022-09-14T09:23:23.451Z,97135.41
2022-09-14T09:26:34.823Z,97132.13
2022-09-14T09:29:40.421Z,97129.97
2022-09-14T09:32:49.115Z,97130.91
2022-09-14T09:36:18.576Z,97120.59
2022-09-14T09:39:27.495Z,97128.97
2022-09-14T09:42:33.747Z,97128.69
2022-09-14T09:46:00.592Z,97127.50
2022-09-14T09:49:20.654Z,97127.88
2022-09-14T09:52:27.245Z,97125.28
2022-09-14T09:55:42.721Z,97116.72
2022-09-14T09:58:52.009Z,97116.69
2022-09-14T10:02:30.964Z,97113.47
2022-09-14T10:05:36.731Z,97127.56
2022-09-14T10:08:50.127Z,97117.81
2022-09-14T10:12:12.728Z,97123.25
2022-09-14T10:15:26.005Z,97121.03
2022-09-14T10:18:36.365Z,97116.09
2022-09-14T10:22:08.611Z,97106.84
2022-09-14T10:25:29.013Z,97113.34
2022-09-14T10:28:37.738Z,97116.78
2022-09-14T10:31:47.756Z,97118.13
2022-09-14T10:34:54.246Z,97119.25
2022-09-14T10:38:25.500Z,97111.88
2022-09-14T10:41:45.719Z,97113.59
2022-09-14T10:45:20.208Z,97111.94
2022-09-14T10:49:06.084Z,97112.31
2022-09-14T10:52:30.078Z,97112.00
2022-09-14T10:55:50.067Z,97108.53
2022-09-14T10:59:28.123Z,97108.84
2022-09-14T11:03:27.805Z,97109.91
2022-09-14T11:06:56.195Z,97101.75
2022-09-14T11:10:23.250Z,97104.09
2022-09-14T11:13:54.250Z,97100.50
2022-09-14T11:17:30.658Z,97100.25
2022-09-14T11:20:53.901Z,97091.44
2022-09-14T11:24:15.151Z,97094.94
2022-09-14T11:27:35.592Z,97085.69
2022-09-14T11:30:50.942Z,97087.59
2022-09-14T11:34:16.457Z,97091.44
2022-09-14T11:37:33.836Z,97090.31
2022-09-14T11:41:00.178Z,97083.13
2022-09-14T11:44:18.825Z,97100.16
2022-09-14T11:47:29.265Z,97087.53
2022-09-14T11:50:40.997Z,97082.59
2022-09-14T11:53:52.746Z,97092.25
2022-09-14T11:57:06.717Z,97095.75
2022-09-14T12:01:03.691Z,97090.88
2022-09-14T12:04:20.011Z,97094.09
2022-09-14T12:08:05.333Z,97095.41
2022-09-14T12:11:34.258Z,97098.78
2022-09-14T12:14:44.836Z,97099.66
2022-09-14T12:17:51.885Z,97099.09
2022-09-14T12:21:10.764Z,97096.16
2022-09-14T12:24:25.909Z,97105.84
2022-09-14T12:27:39.428Z,97093.41
2022-09-14T12:31:16.804Z,97086.84
2022-09-14T12:34:35.286Z,97079.47
2022-09-14T12:37:41.230Z,97083.81
2022-09-14T12:40:53.184Z,97077.19
2022-09-14T12:44:02.444Z,97086.25
2022-09-14T12:47:53.896Z,97078.72
2022-09-14T12:51:00.239Z,97079.25
2022-09-14T12:54:32.346Z,97073.75
2022-09-14T12:57:52.739Z,97067.31
2022-09-14T13:01:29.548Z,97060.47
2022-09-14T13:04:42.451Z,97059.63
2022-09-14T13:07:49.941Z,97054.94
2022-09-14T13:10:56.543Z,97056.78
2022-09-14T13:14:05.265Z,97046.59
2022-09-14T13:17:20.370Z,97042.09
2022-09-14T13:20:29.419Z,97039.69
2022-09-14T13:23:42.283Z,97040.34
2022-09-14T13:26:48.117Z,97032.41
2022-09-14T13:30:05.587Z,97028.38
2022-09-14T13:33:20.395Z,97024.59
2022-09-14T13:36:34.195Z,97014.84
2022-09-14T13:39:46.068Z,97009.88
2022-09-14T13:42:52.312Z,97001.84
2022-09-14T13:45:59.809Z,96993.03
2022-09-14T13:49:12.418Z,97001.25
2022-09-14T13:53:03.619Z,97002.84
2022-09-14T13:56:27.153Z,96983.34
2022-09-14T13:59:33.587Z,96983.50
2022-09-14T14:02:44.077Z,96979.25
2022-09-14T14:05:51.946Z,96971.78
2022-09-14T14:09:05.283Z,96974.53
2022-09-14T14:12:23.501Z,96976.78
2022-09-14T14:15:42.442Z,96962.25
2022-09-14T14:18:56.580Z,96956.63
2022-09-14T14:22:23.333Z,96976.13
2022-09-14T14:25:42.135Z,96969.00
2022-09-14T14:28:51.456Z,96963.56
2022-09-14T14:31:59.550Z,96971.25
2022-09-14T14:35:17.634Z,96975.41
2022-09-14T14:38:30.745Z,96974.16
2022-09-14T14:41:40.516Z,96976.22
2022-09-14T14:44:48.397Z,96968.59
2022-09-14T14:48:00.638Z,96975.94
2022-09-14T14:51:12.208Z,96975.69
2022-09-14T14:54:19.011Z,96970.94
2022-09-14T14:57:27.296Z,96971.16
2022-09-14T15:00:38.641Z,96969.88
2022-09-14T15:03:44.649Z,96977.34
2022-09-14T15:06:51.574Z,96969.28
2022-09-14T15:09:59.956Z,96977.44
2022-09-14T15:13:11.897Z,96977.88
2022-09-14T15:16:19.126Z,96978.16
2022-09-14T15:19:24.685Z,96974.53
2022-09-14T15:22:30.280Z,96970.00
2022-09-14T15:25:36.274Z,96978.31
2022-09-14T15:28:44.363Z,96974.25
2022-09-14T15:31:50.731Z,96968.34
2022-09-14T15:34:56.514Z,96966.91
2022-09-14T15:38:02.392Z,96953.72
2022-09-14T15:41:08.784Z,96969.91
2022-09-14T15:44:17.180Z,96969.66
2022-09-14T15:47:22.803Z,96967.31
2022-09-14T15:50:28.413Z,96972.34
2022-09-14T15:53:34.000Z,96972.84
2022-09-14T15:56:40.011Z,96970.97
2022-09-14T15:59:53.327Z,96973.81
2022-09-14T16:02:58.892Z,96965.72
2022-09-14T16:06:06.307Z,96970.47
2022-09-14T16:09:14.540Z,96961.47
2022-09-14T16:12:28.551Z,96952.16
2022-09-14T16:15:36.968Z,96948.31
2022-09-14T16:18:43.275Z,96945.91
2022-09-14T16:21:53.487Z,96929.69
2022-09-14T16:24:59.306Z,96939.63
2022-09-14T16:28:08.218Z,96936.88
2022-09-14T16:31:20.366Z,96933.13
2022-09-14T16:34:29.848Z,96932.13
2022-09-14T16:37:35.545Z,96932.38
2022-09-14T16:40:43.594Z,96933.31
2022-09-14T16:43:49.329Z,96938.38
2022-09-14T16:47:00.889Z,96935.19
2022-09-14T16:50:07.067Z,96935.19
2022-09-14T16:53:18.256Z,96937.44
2022-09-14T16:56:31.684Z,96935.81
2022-09-14T16:59:37.250Z,96935.50
2022-09-14T17:02:45.863Z,96933.88
2022-09-14T17:05:51.588Z,96925.31
2022-09-14T17:09:06.382Z,96916.50
2022-09-14T17:12:13.909Z,96918.56
2022-09-14T17:15:19.747Z,96917.03
2022-09-14T17:18:27.907Z,96919.19
2022-09-14T17:21:36.872Z,96917.38
2022-09-14T17:24:42.937Z,96914.97
2022-09-14T17:27:50.026Z,96923.38
2022-09-14T17:30:57.460Z,96920.84
2022-09-14T17:34:08.552Z,96923.03
2022-09-14T17:37:14.714Z,96913.53
2022-09-14T17:40:20.829Z,96916.63
2022-09-14T17:43:26.481Z,96911.78
2022-09-14T17:46:34.364Z,96893.59
2022-09-14T17:49:42.854Z,96894.25
2022-09-14T17:52:56.043Z,96894.97
2022-09-14T17:56:05.860Z,96898.63
2022-09-14T17:59:16.003Z,96899.84
2022-09-14T18:02:22.277Z,96908.72
2022-09-14T18:05:35.872Z,96917.41
2022-09-14T18:08:50.004Z,96915.69
2022-09-14T18:12:00.728Z,96914.53
2022-09-14T18:15:15.378Z,96912.63
2022-09-14T18:18:21.180Z,96909.00
2022-09-14T18:21:30.918Z,96905.09
2022-09-14T18:24:42.651Z,96881.97
2022-09-14T18:27:48.638Z,96877.63
2022-09-14T18:31:05.487Z,96876.31
2022-09-14T18:34:24.068Z,96883.19
2022-09-14T18:37:32.848Z,96870.00
2022-09-14T18:40:45.234Z,96878.59
2022-09-14T18:43:55.709Z,96870.44
2022-09-14T18:47:02.532Z,96854.69
2022-09-14T18:50:11.582Z,96864.91
2022-09-14T18:53:20.156Z,96863.69
2022-09-14T18:56:26.097Z,96863.78
2022-09-14T18:59:31.953Z,96852.19
2022-09-14T19:02:39.636Z,96848.19
2022-09-14T19:05:49.804Z,96854.69
2022-09-14T19:08:58.763Z,96855.34
2022-09-14T19:12:05.498Z,96858.09
2022-09-14T19:15:15.385Z,96856.94
2022-09-14T19:18:21.463Z,96852.50
2022-09-14T19:21:31.365Z,96856.44
2022-09-14T19:24:40.122Z,96850.69
2022-09-14T19:27:45.898Z,96846.25
2022-09-14T19:30:51.758Z,96838.19
2022-09-14T19:33:59.247Z,96837.09
2022-09-14T19:37:05.252Z,96851.56
2022-09-14T19:40:16.878Z,96845.59
2022-09-14T19:43:23.254Z,96844.44
2022-09-14T19:46:32.411Z,96854.88
2022-09-14T19:49:38.346Z,96845.75
2022-09-14T19:52:43.994Z,96838.84
2022-09-14T19:55:52.373Z,96831.06
2022-09-14T19:59:06.331Z,96830.97
2022-09-14T20:02:14.522Z,96833.00
2022-09-14T20:05:20.572Z,96825.34
2022-09-14T20:08:29.441Z,96831.19
2022-09-14T20:11:41.140Z,96834.28
2022-09-14T20:14:46.997Z,96840.06
2022-09-14T20:17:57.826Z,96844.19
2022-09-14T20:21:06.546Z,96841.72
2022-09-14T20:24:18.214Z,96836.50
2022-09-14T20:27:29.170Z,96837.38
2022-09-14T20:30:39.444Z,96843.88
2022-09-14T20:33:45.490Z,96837.34
2022-09-14T20:36:53.182Z,96824.25
2022-09-14T20:39:58.700Z,96829.78
2022-09-14T20:43:07.333Z,96834.09
2022-09-14T20:46:17.931Z,96831.13
2022-09-14T20:49:27.136Z,96826.38
2022-09-14T20:52:32.948Z,96820.50
2022-09-14T20:55:38.577Z,96818.38
2022-09-14T20:58:56.193Z,96808.28
2022-09-14T21:02:05.298Z,96802.19
2022-09-14T21:05:17.190Z,96798.91
2022-09-14T21:08:23.783Z,96801.53
2022-09-14T21:11:31.320Z,96792.75
2022-09-14T21:14:39.564Z,96792.06
2022-09-14T21:17:45.110Z,96776.91
2022-09-14T21:20:50.683Z,96761.81
2022-09-14T21:23:58.661Z,96753.63
2022-09-14T21:27:05.002Z,96759.53
2022-09-14T21:30:15.441Z,96757.69
2022-09-14T21:33:23.054Z,96765.22
2022-09-14T21:36:43.181Z,96774.03
2022-09-14T21:39:48.723Z,96762.00
2022-09-14T21:42:55.384Z,96759.66
2022-09-14T21:46:14.862Z,96749.06
2022-09-14T21:49:23.713Z,96750.03
2022-09-14T21:52:29.397Z,96751.19
2022-09-14T21:55:35.066Z,96742.38
2022-09-14T21:58:40.599Z,96743.41
2022-09-14T22:01:49.819Z,96736.78
2022-09-14T22:04:55.490Z,96734.97
2022-09-14T22:08:01.061Z,96736.28
2022-09-14T22:11:09.108Z,96735.94
2022-09-14T22:14:23.818Z,96715.53
2022-09-14T22:17:32.066Z,96718.06
2022-09-14T22:20:37.693Z,96716.06
2022-09-14T22:23:43.824Z,96716.34
2022-09-14T22:26:50.652Z,96729.50
2022-09-14T22:29:58.165Z,96747.84
2022-09-14T22:33:06.443Z,96743.34
2022-09-14T22:36:15.083Z,96742.78
2022-09-14T22:39:21.780Z,96728.75
2022-09-14T22:42:28.312Z,96718.91
2022-09-14T22:45:33.782Z,96718.28
2022-09-14T22:48:43.240Z,96704.47
2022-09-14T22:51:48.906Z,96703.31
2022-09-14T22:54:54.526Z,96695.13
2022-09-14T22:58:00.137Z,96691.06
2022-09-14T23:01:11.544Z,96702.19
2022-09-14T23:04:19.882Z,96688.78
2022-09-14T23:07:25.597Z,96694.22
2022-09-14T23:10:31.425Z,96696.69
2022-09-14T23:13:40.763Z,96692.84
2022-09-14T23:16:52.205Z,96680.44
2022-09-14T23:20:00.585Z,96685.66
2022-09-14T23:23:06.797Z,96674.44
2022-09-14T23:26:15.376Z,96684.72
2022-09-14T23:29:20.823Z,96664.59
2022-09-14T23:32:26.498Z,96665.25
2022-09-14T23:35:37.556Z,96663.59
2022-09-14T23:38:43.491Z,96667.88
2022-09-14T23:41:49.215Z,96656.91
2022-09-14T23:44:54.737Z,96649.81
2022-09-14T23:48:00.286Z,96642.31
2022-09-14T23:51:12.496Z,96650.13
2022-09-14T23:54:18.214Z,96646.16
2022-09-14T23:57:23.733Z,96649.41
